Time;durP1;ratioP1;P1;durP2;ratioP2;P2;SDS_P1;SDS_P2;PMS_P1;PMS_P2;Temp;Humidity;BMP_temperature;BMP_pressure;BME280_temperature;BME280_humidity;BME280_pressure;Samples;Min_cycle;Max_cycle;Signal;HPM_P1;HPM_P2
2023/08/14 00:01:57;;;;;;;14.02;8.23;;;13.30;99.90;;;;;;5075160;28;20440;-24
2023/08/14 00:04:22;;;;;;;11.73;7.22;;;13.20;99.90;;;;;;5075203;28;20048;-24
2023/08/14 00:06:48;;;;;;;10.02;6.95;;;13.20;99.90;;;;;;5075008;28;20041;-24
2023/08/14 00:09:14;;;;;;;12.98;8.23;;;13.20;99.90;;;;;;5073166;28;20045;-24
2023/08/14 00:11:40;;;;;;;13.85;7.03;;;13.20;99.90;;;;;;5073784;28;20475;-24
2023/08/14 00:14:05;;;;;;;11.45;7.95;;;13.30;99.90;;;;;;5074906;28;20131;-24
2023/08/14 00:16:31;;;;;;;14.63;7.25;;;13.20;99.90;;;;;;5074878;28;20040;-24
2023/08/14 00:18:57;;;;;;;11.65;8.02;;;13.20;99.90;;;;;;5072862;28;20051;-24
2023/08/14 00:21:23;;;;;;;11.85;7.47;;;13.30;99.90;;;;;;5075605;28;20044;-24
2023/08/14 00:23:49;;;;;;;10.93;7.50;;;13.10;99.90;;;;;;5073514;28;20041;-24
2023/08/14 00:26:15;;;;;;;9.00;6.75;;;13.30;99.90;;;;;;5074279;28;20040;-24
2023/08/14 00:28:41;;;;;;;10.20;7.05;;;13.20;99.90;;;;;;5074619;28;20049;-24
2023/08/14 00:31:07;;;;;;;12.32;7.95;;;13.10;99.90;;;;;;5071700;28;20505;-24
2023/08/14 00:33:33;;;;;;;11.35;7.93;;;13.20;99.90;;;;;;5074544;28;20088;-24
2023/08/14 00:35:59;;;;;;;11.85;8.35;;;13.20;99.90;;;;;;5074969;28;20059;-24
2023/08/14 00:38:24;;;;;;;13.95;8.98;;;13.00;99.90;;;;;;5073246;28;20047;-24
2023/08/14 00:40:52;;;;;;;10.10;7.75;;;13.00;99.90;;;;;;5072381;28;20044;-24
2023/08/14 00:43:20;;;;;;;12.48;8.13;;;13.20;99.90;;;;;;5073807;28;20127;-24
2023/08/14 00:45:46;;;;;;;11.98;8.27;;;13.20;99.90;;;;;;5073720;28;20131;-24
2023/08/14 00:48:14;;;;;;;11.95;8.32;;;13.10;99.90;;;;;;5074456;28;20123;-24
2023/08/14 00:50:40;;;;;;;14.30;8.27;;;13.10;99.90;;;;;;5065232;28;20073;-24
2023/08/14 00:53:06;;;;;;;12.93;8.27;;;13.00;99.90;;;;;;5054540;28;20126;-24
2023/08/14 00:55:32;;;;;;;10.23;7.00;;;13.00;99.90;;;;;;5054153;28;20082;-24
2023/08/14 00:57:57;;;;;;;13.73;7.95;;;13.00;99.90;;;;;;5053191;28;20052;-24
2023/08/14 01:00:24;;;;;;;10.02;7.30;;;13.10;99.90;;;;;;5054134;28;20057;-23
2023/08/14 01:02:50;;;;;;;12.70;7.72;;;13.10;99.90;;;;;;5069441;28;20079;-24
2023/08/14 01:05:16;;;;;;;11.07;7.38;;;13.10;99.90;;;;;;5054024;28;20084;-24
2023/08/14 01:07:42;;;;;;;11.60;8.15;;;13.10;99.90;;;;;;5053923;28;20049;-24
2023/08/14 01:10:09;;;;;;;12.95;8.05;;;12.90;99.90;;;;;;5053313;28;20049;-23
2023/08/14 01:13:01;;;;;;;15.40;7.70;;;13.00;99.90;;;;;;5067769;28;20057;-23
2023/08/14 01:15:42;;;;;;;13.13;8.40;;;13.00;99.90;;;;;;5073416;28;20136;-24
2023/08/14 01:18:11;;;;;;;12.43;7.93;;;12.90;99.90;;;;;;5074145;28;20402;-24
2023/08/14 01:20:38;;;;;;;12.07;8.00;;;12.90;99.90;;;;;;5073776;28;20056;-24
2023/08/14 01:23:17;;;;;;;13.65;7.80;;;13.00;99.90;;;;;;5070666;28;20494;-24
2023/08/14 01:25:44;;;;;;;14.20;7.90;;;12.90;99.90;;;;;;5071605;28;20567;-24
2023/08/14 01:28:10;;;;;;;14.05;7.57;;;13.00;99.90;;;;;;5072436;28;20106;-24
2023/08/14 01:30:36;;;;;;;13.82;8.23;;;12.80;99.90;;;;;;5074234;28;20048;-24
2023/08/14 01:33:02;;;;;;;14.38;8.05;;;12.80;99.90;;;;;;5071654;28;20663;-24
2023/08/14 01:35:42;;;;;;;11.88;8.05;;;13.00;99.90;;;;;;5073577;28;20417;-23
2023/08/14 01:38:45;;;;;;;9.48;8.02;;;13.00;99.90;;;;;;5073632;28;20036;-24
2023/08/14 01:41:20;;;;;;;10.73;7.95;;;13.00;99.90;;;;;;5072671;28;20487;-24
2023/08/14 01:43:54;;;;;;;15.48;8.73;;;12.90;99.90;;;;;;5060540;28;20080;-23
2023/08/14 01:46:21;;;;;;;13.48;8.77;;;12.80;99.90;;;;;;5052882;28;20494;-23
2023/08/14 01:48:50;;;;;;;16.35;9.77;;;12.80;99.90;;;;;;5053519;28;20384;-24
2023/08/14 01:51:18;;;;;;;14.90;8.35;;;12.80;99.90;;;;;;5054279;28;20048;-23
2023/08/14 01:53:47;;;;;;;10.52;8.02;;;12.80;99.90;;;;;;5059009;28;20048;-24
2023/08/14 01:56:12;;;;;;;11.32;8.25;;;12.80;99.90;;;;;;5076077;28;20397;-23
2023/08/14 01:58:38;;;;;;;14.13;9.30;;;12.80;99.90;;;;;;5077233;28;20049;-23
2023/08/14 02:01:04;;;;;;;11.55;8.68;;;12.70;99.90;;;;;;5077482;28;20102;-23
2023/08/14 02:03:30;;;;;;;12.40;8.65;;;12.80;99.90;;;;;;5058758;28;20161;-22
2023/08/14 02:05:56;;;;;;;12.60;8.32;;;12.90;99.90;;;;;;5075830;28;20123;-24
2023/08/14 02:08:21;;;;;;;13.93;8.55;;;12.80;99.90;;;;;;5077808;28;20110;-23
2023/08/14 02:10:47;;;;;;;11.68;8.60;;;12.90;99.90;;;;;;5077270;28;20048;-24
2023/08/14 02:13:13;;;;;;;16.95;9.35;;;12.70;99.90;;;;;;5077812;28;20131;-24
2023/08/14 02:15:39;;;;;;;16.63;9.50;;;12.70;99.90;;;;;;5075781;28;20083;-24
2023/08/14 02:18:04;;;;;;;13.95;8.77;;;12.80;99.90;;;;;;5077153;28;20037;-23
2023/08/14 02:20:30;;;;;;;15.50;9.90;;;12.80;99.90;;;;;;5077063;28;20052;-23
2023/08/14 02:22:56;;;;;;;14.95;9.23;;;12.70;99.90;;;;;;5077360;28;20051;-23
2023/08/14 02:25:22;;;;;;;14.70;8.00;;;12.80;99.90;;;;;;5075240;28;20576;-23
2023/08/14 02:27:47;;;;;;;14.98;9.25;;;12.90;99.90;;;;;;5077442;28;20047;-23
2023/08/14 02:30:13;;;;;;;15.63;8.63;;;12.80;99.90;;;;;;5077450;28;20087;-23
2023/08/14 02:32:39;;;;;;;14.45;8.40;;;12.70;99.90;;;;;;5077690;28;20549;-23
2023/08/14 02:35:05;;;;;;;17.77;9.43;;;12.70;99.90;;;;;;5076989;28;20052;-24
2023/08/14 02:37:31;;;;;;;21.40;9.75;;;12.80;99.90;;;;;;5059292;28;20521;-23
2023/08/14 02:39:56;;;;;;;14.65;8.70;;;12.70;99.90;;;;;;5076723;28;20045;-23
2023/08/14 02:42:22;;;;;;;12.05;8.23;;;12.60;99.90;;;;;;5076647;28;20044;-24
2023/08/14 02:44:50;;;;;;;24.45;10.20;;;12.70;99.90;;;;;;5077411;28;20055;-23
2023/08/14 02:47:16;;;;;;;13.20;9.68;;;12.60;99.90;;;;;;5063961;28;20045;-23
2023/08/14 02:49:42;;;;;;;17.00;9.45;;;12.70;99.90;;;;;;5056523;28;20044;-24
2023/08/14 02:52:08;;;;;;;13.85;9.27;;;12.80;99.90;;;;;;5054868;28;20098;-23
2023/08/14 02:54:34;;;;;;;17.13;9.85;;;12.70;99.90;;;;;;5056493;28;20071;-23
2023/08/14 02:56:59;;;;;;;14.45;9.00;;;12.80;99.90;;;;;;5061004;28;20044;-24
2023/08/14 02:59:25;;;;;;;14.00;9.32;;;12.80;99.90;;;;;;5077219;28;20371;-24
2023/08/14 03:01:51;;;;;;;16.88;9.30;;;12.90;99.90;;;;;;5075354;28;20044;-24
2023/08/14 03:04:17;;;;;;;15.25;9.45;;;13.00;99.90;;;;;;5076084;28;20566;-23
2023/08/14 03:06:43;;;;;;;19.33;10.02;;;12.90;99.90;;;;;;5076696;28;20095;-24
2023/08/14 03:09:09;;;;;;;18.75;10.25;;;13.00;99.90;;;;;;5054858;28;20124;-23
2023/08/14 03:11:35;;;;;;;18.90;9.98;;;13.00;99.90;;;;;;5056145;28;20044;-23
2023/08/14 03:14:01;;;;;;;17.77;10.57;;;13.00;99.90;;;;;;5056348;28;20063;-23
2023/08/14 03:16:26;;;;;;;21.70;11.15;;;13.00;99.90;;;;;;5056598;28;20037;-23
2023/08/14 03:18:52;;;;;;;18.42;11.50;;;12.90;99.90;;;;;;5066888;28;20044;-23
2023/08/14 03:21:18;;;;;;;17.30;10.77;;;13.00;99.90;;;;;;5076014;28;20091;-24
2023/08/14 03:23:45;;;;;;;18.23;9.85;;;12.80;99.90;;;;;;5076503;28;20419;-23
2023/08/14 03:26:10;;;;;;;19.80;10.93;;;12.70;99.90;;;;;;5075793;28;20563;-24
2023/08/14 03:28:36;;;;;;;17.98;11.00;;;12.70;99.90;;;;;;5070241;28;20119;-24
2023/08/14 03:31:02;;;;;;;20.15;11.70;;;12.60;99.90;;;;;;5056260;28;20055;-23
2023/08/14 03:33:27;;;;;;;20.70;11.30;;;12.60;99.90;;;;;;5055672;28;20037;-24
2023/08/14 03:35:53;;;;;;;17.73;11.68;;;12.80;99.90;;;;;;5056099;28;20094;-23
2023/08/14 03:38:20;;;;;;;18.33;12.30;;;12.60;99.90;;;;;;5055608;28;20056;-23
2023/08/14 03:40:45;;;;;;;20.60;12.77;;;12.70;99.90;;;;;;5072927;28;20055;-24
2023/08/14 03:43:11;;;;;;;20.10;12.90;;;12.80;99.90;;;;;;5076036;28;20052;-23
2023/08/14 03:45:37;;;;;;;20.85;13.75;;;12.60;99.90;;;;;;5057758;28;20040;-24
2023/08/14 03:48:03;;;;;;;25.63;15.25;;;12.70;99.90;;;;;;5075624;28;20049;-23
2023/08/14 03:50:29;;;;;;;24.52;14.50;;;12.80;99.90;;;;;;5072145;28;20048;-23
2023/08/14 03:52:55;;;;;;;26.10;14.93;;;12.70;99.90;;;;;;5073837;28;20079;-23
2023/08/14 03:55:21;;;;;;;22.35;15.05;;;12.90;99.90;;;;;;5075386;28;20105;-24
2023/08/14 03:57:47;;;;;;;24.30;16.13;;;12.80;99.90;;;;;;5075218;28;20131;-24
2023/08/14 04:00:13;;;;;;;30.63;17.92;;;12.80;99.90;;;;;;5069250;28;20088;-23
2023/08/14 04:02:39;;;;;;;31.77;19.85;;;13.00;99.90;;;;;;5055129;28;20048;-24
2023/08/14 04:05:06;;;;;;;27.23;18.80;;;12.90;99.90;;;;;;5055089;28;20410;-24
2023/08/14 04:07:31;;;;;;;35.42;19.65;;;12.90;99.90;;;;;;5053548;28;20053;-24
2023/08/14 04:09:57;;;;;;;34.78;20.20;;;13.10;99.90;;;;;;5054981;28;20045;-24
2023/08/14 04:12:23;;;;;;;34.83;18.00;;;13.20;99.90;;;;;;5072276;28;20085;-24
2023/08/14 04:14:49;;;;;;;28.73;19.55;;;12.90;99.90;;;;;;5073639;28;20122;-24
2023/08/14 04:17:15;;;;;;;36.08;20.27;;;13.00;99.90;;;;;;5072778;28;20048;-24
2023/08/14 04:19:41;;;;;;;37.85;20.27;;;13.20;99.90;;;;;;5074718;28;20062;-24
2023/08/14 04:22:07;;;;;;;30.55;20.35;;;13.20;99.90;;;;;;5072780;28;20036;-23
2023/08/14 04:24:33;;;;;;;33.67;20.63;;;13.20;99.90;;;;;;5073959;28;20429;-23
2023/08/14 04:26:58;;;;;;;32.03;19.95;;;13.30;99.90;;;;;;5073314;28;20121;-23
2023/08/14 04:29:24;;;;;;;33.50;20.52;;;13.20;99.90;;;;;;5075116;28;20044;-23
2023/08/14 04:31:50;;;;;;;36.38;21.27;;;13.10;99.90;;;;;;5071783;28;20076;-23
2023/08/14 04:34:15;;;;;;;34.95;20.48;;;13.40;99.90;;;;;;5074484;28;20036;-23
2023/08/14 04:36:41;;;;;;;29.50;19.40;;;13.20;99.90;;;;;;5074601;28;20048;-23
2023/08/14 04:39:10;;;;;;;30.40;19.77;;;13.30;99.90;;;;;;5074429;28;20044;-24
2023/08/14 04:41:36;;;;;;;32.00;19.42;;;13.30;99.90;;;;;;5072999;28;20497;-22
2023/08/14 04:44:02;;;;;;;29.25;19.05;;;13.10;99.90;;;;;;5056796;28;20049;-23
2023/08/14 04:46:33;;;;;;;28.85;19.60;;;13.20;99.90;;;;;;5054278;28;20472;-24
2023/08/14 04:48:59;;;;;;;32.65;19.75;;;13.20;99.90;;;;;;5054292;28;20183;-23
2023/08/14 04:51:26;;;;;;;34.58;20.00;;;13.40;99.90;;;;;;5053013;28;20056;-23
2023/08/14 04:53:53;;;;;;;30.95;19.27;;;13.30;99.90;;;;;;5064934;28;20135;-23
2023/08/14 04:56:19;;;;;;;29.92;20.42;;;13.30;99.90;;;;;;5072529;28;20059;-24
2023/08/14 04:58:45;;;;;;;30.85;20.23;;;13.60;99.90;;;;;;5074101;28;20053;-23
2023/08/14 05:01:11;;;;;;;36.30;21.00;;;13.50;99.90;;;;;;5056142;28;20507;-23
2023/08/14 05:03:37;;;;;;;28.13;18.60;;;13.60;99.90;;;;;;5066439;28;20051;-23
2023/08/14 05:06:03;;;;;;;28.80;18.85;;;13.80;99.90;;;;;;5052750;28;20045;-23
2023/08/14 05:08:29;;;;;;;27.10;19.65;;;13.80;99.90;;;;;;5053817;28;20107;-23
2023/08/14 05:10:55;;;;;;;29.65;19.35;;;13.80;99.90;;;;;;5053869;28;20060;-23
2023/08/14 05:13:21;;;;;;;27.92;17.70;;;13.90;99.90;;;;;;5053670;28;20578;-23
2023/08/14 05:15:48;;;;;;;32.03;20.42;;;14.00;99.90;;;;;;5070074;28;20047;-23
2023/08/14 05:18:14;;;;;;;31.25;19.48;;;14.00;99.90;;;;;;5073839;28;20084;-23
2023/08/14 05:20:44;;;;;;;31.17;18.73;;;14.20;99.90;;;;;;5072792;28;20080;-23
2023/08/14 05:23:10;;;;;;;30.33;19.85;;;14.10;99.90;;;;;;5056394;28;20055;-23
2023/08/14 05:25:36;;;;;;;29.95;19.65;;;14.10;99.90;;;;;;5059232;28;20106;-23
2023/08/14 05:28:04;;;;;;;33.45;19.25;;;14.30;99.90;;;;;;5053355;28;20049;-24
2023/08/14 05:30:29;;;;;;;30.52;19.95;;;14.30;99.90;;;;;;5052051;28;20075;-23
2023/08/14 05:32:55;;;;;;;29.30;18.35;;;14.50;99.90;;;;;;5053659;28;20041;-23
2023/08/14 05:35:24;;;;;;;30.42;20.10;;;14.40;99.90;;;;;;5053295;28;20533;-23
2023/08/14 05:37:52;;;;;;;29.08;17.38;;;14.50;99.90;;;;;;5053521;28;20070;-23
2023/08/14 05:40:19;;;;;;;28.05;17.98;;;14.60;99.90;;;;;;5053580;28;20494;-23
2023/08/14 05:43:01;;;;;;;22.10;16.38;;;14.80;99.90;;;;;;5054151;28;20110;-23
2023/08/14 05:45:27;;;;;;;26.02;16.15;;;14.80;99.90;;;;;;5055171;28;20078;-23
2023/08/14 05:47:52;;;;;;;28.65;18.13;;;15.00;99.90;;;;;;5073065;28;20127;-24
2023/08/14 05:50:20;;;;;;;26.13;17.23;;;15.10;99.90;;;;;;5063655;28;20525;-23
2023/08/14 05:52:47;;;;;;;22.80;14.82;;;15.20;99.90;;;;;;5053280;28;20091;-23
2023/08/14 05:55:12;;;;;;;22.13;16.15;;;15.20;99.90;;;;;;5053691;28;20048;-23
2023/08/14 05:57:38;;;;;;;24.98;15.07;;;15.20;99.90;;;;;;5052110;28;20068;-23
2023/08/14 06:00:05;;;;;;;24.98;16.25;;;15.40;99.90;;;;;;5053333;28;20044;-23
2023/08/14 06:02:30;;;;;;;22.38;14.95;;;15.40;99.90;;;;;;5052610;28;20052;-23
2023/08/14 06:04:56;;;;;;;22.15;14.95;;;15.60;99.90;;;;;;5053289;28;20114;-23
2023/08/14 06:07:22;;;;;;;18.13;13.63;;;15.70;99.90;;;;;;5061232;28;20055;-24
2023/08/14 06:09:47;;;;;;;19.27;12.73;;;15.70;99.90;;;;;;5073302;28;20041;-23
2023/08/14 06:12:13;;;;;;;22.15;13.70;;;15.80;99.90;;;;;;5073223;28;20084;-24
2023/08/14 06:14:39;;;;;;;17.27;12.70;;;16.00;99.90;;;;;;5073569;28;20037;-24
2023/08/14 06:17:05;;;;;;;19.23;12.77;;;16.10;99.90;;;;;;5070308;28;20539;-23
2023/08/14 06:19:31;;;;;;;18.15;11.65;;;16.20;99.90;;;;;;5073510;28;20044;-23
2023/08/14 06:21:57;;;;;;;17.45;10.13;;;16.30;99.90;;;;;;5073741;28;20049;-24
2023/08/14 06:24:23;;;;;;;30.50;10.68;;;16.50;99.90;;;;;;5060421;28;20119;-23
2023/08/14 06:26:48;;;;;;;15.80;10.52;;;16.60;99.90;;;;;;5057548;28;20037;-23
2023/08/14 06:29:14;;;;;;;18.10;9.75;;;16.70;99.90;;;;;;5063952;28;20041;-23
2023/08/14 06:31:40;;;;;;;18.48;9.35;;;16.80;99.90;;;;;;5056672;28;20134;-26
2023/08/14 06:34:06;;;;;;;16.05;9.65;;;16.90;99.90;;;;;;5053352;28;20049;-26
2023/08/14 06:36:31;;;;;;;17.42;8.55;;;17.00;99.90;;;;;;5051846;28;20048;-26
2023/08/14 06:38:57;;;;;;;11.98;8.60;;;17.00;99.90;;;;;;5053322;28;20049;-25
2023/08/14 06:41:23;;;;;;;13.73;8.63;;;17.10;99.90;;;;;;5060935;28;20041;-24
2023/08/14 06:43:49;;;;;;;11.10;7.43;;;17.20;99.90;;;;;;5059810;28;20044;-25
2023/08/14 06:46:14;;;;;;;12.57;6.95;;;17.20;99.90;;;;;;5056535;28;20091;-24
2023/08/14 06:48:40;;;;;;;17.00;7.28;;;17.30;99.90;;;;;;5056596;28;20048;-24
2023/08/14 06:51:06;;;;;;;14.38;7.00;;;17.30;99.90;;;;;;5056842;28;20095;-24
2023/08/14 06:53:32;;;;;;;10.75;6.35;;;17.60;99.90;;;;;;5054886;28;20063;-24
2023/08/14 06:55:58;;;;;;;9.13;6.60;;;17.60;99.90;;;;;;5074043;28;20050;-25
2023/08/14 06:58:23;;;;;;;8.35;5.95;;;17.70;99.90;;;;;;5067863;28;20453;-25
2023/08/14 07:00:49;;;;;;;10.20;5.97;;;17.90;99.90;;;;;;5056419;28;20578;-25
2023/08/14 07:03:15;;;;;;;10.88;6.43;;;18.00;99.90;;;;;;5056343;28;20041;-25
2023/08/14 07:05:40;;;;;;;7.72;4.63;;;18.20;99.90;;;;;;5056240;28;20047;-25
2023/08/14 07:08:06;;;;;;;8.40;5.43;;;18.20;99.90;;;;;;5057379;28;20036;-24
2023/08/14 07:10:32;;;;;;;8.38;5.53;;;18.20;99.90;;;;;;5075902;28;20048;-24
2023/08/14 07:12:57;;;;;;;9.40;4.43;;;18.30;99.90;;;;;;5057616;28;20041;-25
2023/08/14 07:15:24;;;;;;;8.15;4.97;;;18.40;99.90;;;;;;5073999;28;20497;-25
2023/08/14 07:17:50;;;;;;;11.68;4.90;;;18.50;99.90;;;;;;5070760;28;20452;-25
2023/08/14 07:20:16;;;;;;;12.65;4.80;;;18.70;99.90;;;;;;5039318;28;20037;-26
2023/08/14 07:22:42;;;;;;;7.80;4.85;;;18.90;99.90;;;;;;5059896;28;20052;-24
2023/08/14 07:25:08;;;;;;;7.88;4.80;;;19.00;99.90;;;;;;5076008;28;20131;-25
2023/08/14 07:27:33;;;;;;;9.85;5.07;;;19.10;99.90;;;;;;5074609;28;20044;-26
2023/08/14 07:30:00;;;;;;;7.80;4.30;;;19.30;99.90;;;;;;5075844;28;20056;-26
2023/08/14 07:32:25;;;;;;;7.57;4.22;;;19.40;99.90;;;;;;5074426;28;20051;-24
2023/08/14 07:34:51;;;;;;;6.88;3.40;;;19.40;99.90;;;;;;5075475;28;20052;-25
2023/08/14 07:37:17;;;;;;;9.27;3.80;;;19.50;99.90;;;;;;5076030;28;20043;-25
2023/08/14 07:39:42;;;;;;;8.32;3.63;;;19.50;99.90;;;;;;5074700;28;20394;-25
2023/08/14 07:42:08;;;;;;;6.85;3.78;;;19.50;99.90;;;;;;5075642;28;20045;-25
2023/08/14 07:44:34;;;;;;;8.85;3.60;;;19.50;99.90;;;;;;5070016;28;20044;-26
2023/08/14 07:46:59;;;;;;;8.63;4.25;;;19.60;99.90;;;;;;5058731;28;20049;-26
2023/08/14 07:49:25;;;;;;;5.35;3.67;;;19.80;99.90;;;;;;5072546;28;20448;-26
2023/08/14 07:51:51;;;;;;;7.03;2.50;;;20.00;99.90;;;;;;5070473;28;20044;-26
2023/08/14 07:54:16;;;;;;;5.38;3.10;;;20.00;76.70;;;;;;5075540;28;20109;-26
2023/08/14 07:56:42;;;;;;;5.43;2.47;;;19.90;1.00;;;;;;5075307;28;20513;-26
2023/08/14 07:59:08;;;;;;;6.35;2.63;;;19.80;99.90;;;;;;5076131;28;20371;-26
2023/08/14 08:01:34;;;;;;;7.22;3.08;;;19.80;99.90;;;;;;5073060;28;20044;-26
2023/08/14 08:03:59;;;;;;;6.85;2.55;;;19.70;99.90;;;;;;5074971;28;20138;-26
2023/08/14 08:06:25;;;;;;;5.38;3.13;;;19.60;99.90;;;;;;5074058;28;20075;-27
2023/08/14 08:08:51;;;;;;;8.93;2.92;;;19.60;99.90;;;;;;5075379;28;20269;-26
2023/08/14 08:11:17;;;;;;;5.65;2.78;;;19.70;99.90;;;;;;5075309;28;20471;-26
2023/08/14 08:13:42;;;;;;;5.00;2.78;;;19.80;99.90;;;;;;5072074;28;20055;-26
2023/08/14 08:16:08;;;;;;;5.90;2.50;;;19.80;99.90;;;;;;5057348;28;20045;-26
2023/08/14 08:18:34;;;;;;;8.07;2.72;;;19.80;99.90;;;;;;5074907;28;20077;-26
2023/08/14 08:21:00;;;;;;;6.10;2.08;;;19.90;99.90;;;;;;5074878;28;20091;-26
2023/08/14 08:23:26;;;;;;;10.27;2.60;;;19.90;99.90;;;;;;5065808;28;20081;-26
2023/08/14 08:25:52;;;;;;;4.60;2.40;;;20.00;99.90;;;;;;5053493;28;20052;-26
2023/08/14 08:28:17;;;;;;;9.55;2.80;;;20.10;99.90;;;;;;5054683;28;20048;-26
2023/08/14 08:30:43;;;;;;;8.60;3.03;;;20.20;99.90;;;;;;5054646;28;20041;-26
2023/08/14 08:33:09;;;;;;;7.55;2.60;;;20.20;99.90;;;;;;5054863;28;20049;-24
2023/08/14 08:35:34;;;;;;;6.60;2.88;;;20.30;99.90;;;;;;5056432;28;20048;-26
2023/08/14 08:38:00;;;;;;;8.35;3.00;;;20.30;99.90;;;;;;5068195;28;20063;-26
2023/08/14 08:40:27;;;;;;;6.43;3.03;;;20.30;99.90;;;;;;5072275;28;20044;-25
2023/08/14 08:42:54;;;;;;;7.35;3.08;;;20.30;99.90;;;;;;5069644;28;20052;-26
2023/08/14 08:45:27;;;;;;;6.63;3.15;;;20.50;99.90;;;;;;5064041;28;20053;-26
2023/08/14 08:47:54;;;;;;;8.27;3.70;;;20.60;99.90;;;;;;5053181;28;20471;-26
2023/08/14 08:50:22;;;;;;;6.97;3.88;;;20.60;99.90;;;;;;5053867;28;20049;-26
2023/08/14 08:52:48;;;;;;;6.35;3.53;;;20.70;99.90;;;;;;5054773;28;20057;-26
2023/08/14 08:55:14;;;;;;;8.38;2.85;;;20.80;99.90;;;;;;5054172;28;20491;-28
2023/08/14 08:57:39;;;;;;;7.68;3.03;;;21.10;99.90;;;;;;5057783;28;20041;-26
2023/08/14 09:00:06;;;;;;;6.90;3.13;;;21.20;99.90;;;;;;5073118;28;20041;-27
2023/08/14 09:02:32;;;;;;;3.97;2.30;;;21.50;99.90;;;;;;5053369;28;20379;-27
2023/08/14 09:04:58;;;;;;;7.88;2.35;;;21.70;26.20;;;;;;5058687;28;20045;-27
2023/08/14 09:07:23;;;;;;;9.77;2.38;;;21.80;1.00;;;;;;5058017;28;20045;-26
2023/08/14 09:09:49;;;;;;;4.03;1.67;;;22.00;99.90;;;;;;5053066;28;20075;-27
2023/08/14 09:12:15;;;;;;;3.60;2.10;;;22.70;99.90;;;;;;5053946;28;20135;-26
2023/08/14 09:14:43;;;;;;;6.38;2.47;;;23.00;99.90;;;;;;5052761;28;20056;-27
2023/08/14 09:17:10;;;;;;;4.30;1.90;;;22.80;99.90;;;;;;5060324;28;20079;-27
2023/08/14 09:19:38;;;;;;;3.67;1.48;;;22.40;99.90;;;;;;5074447;28;20049;-28
2023/08/14 09:22:05;;;;;;;5.88;1.98;;;22.00;90.10;;;;;;5073785;28;20052;-27
2023/08/14 09:24:34;;;;;;;4.20;1.50;;;21.80;99.90;;;;;;5073791;28;20620;-26
2023/08/14 09:27:00;;;;;;;3.33;0.93;;;21.60;99.90;;;;;;5072142;28;20119;-26
2023/08/14 09:29:30;;;;;;;6.05;1.30;;;21.40;99.90;;;;;;5072831;28;20045;-27
2023/08/14 09:31:58;;;;;;;3.22;0.95;;;21.70;99.90;;;;;;5073719;28;20129;-26
2023/08/14 09:34:24;;;;;;;4.22;1.73;;;22.60;1.00;;;;;;5074251;28;20052;-26
2023/08/14 09:36:50;;;;;;;4.72;1.60;;;23.10;99.90;;;;;;5072329;28;20045;-26
2023/08/14 09:39:15;;;;;;;3.45;1.33;;;23.70;1.00;;;;;;5038072;28;20053;-27
2023/08/14 09:41:46;;;;;;;6.05;1.30;;;24.60;49.40;;;;;;5053630;28;20142;-26
2023/08/14 09:44:12;;;;;;;3.08;1.10;;;24.90;1.00;;;;;;5054152;28;20060;-26
2023/08/14 09:46:39;;;;;;;2.95;0.70;;;25.00;99.90;;;;;;5054030;28;20049;-26
2023/08/14 09:49:05;;;;;;;2.60;0.90;;;25.10;1.00;;;;;;5065885;28;20055;-26
2023/08/14 09:51:32;;;;;;;3.75;1.23;;;25.40;99.90;;;;;;5039182;28;20044;-26
2023/08/14 09:53:57;;;;;;;5.43;1.65;;;25.50;99.90;;;;;;5067294;28;20060;-27
2023/08/14 09:56:24;;;;;;;4.32;1.10;;;25.60;20.80;;;;;;5058330;28;20099;-27
2023/08/14 09:58:52;;;;;;;5.15;0.90;;;25.90;1.00;;;;;;5055170;28;20052;-29
2023/08/14 10:01:20;;;;;;;4.47;0.90;;;25.90;1.00;;;;;;5073477;28;20048;-29
2023/08/14 10:03:49;;;;;;;5.57;1.20;;;26.20;1.00;;;;;;5074044;28;20048;-29
2023/08/14 10:06:16;;;;;;;3.45;0.90;;;26.10;1.00;;;;;;5067915;28;20052;-30
2023/08/14 10:08:45;;;;;;;4.63;1.40;;;25.90;1.00;;;;;;5053279;28;20095;-29
2023/08/14 10:11:15;;;;;;;3.65;1.27;;;25.60;99.90;;;;;;5035942;28;20052;-29
2023/08/14 10:13:54;;;;;;;2.33;0.95;;;25.60;1.00;;;;;;5053301;28;20091;-29
2023/08/14 10:16:27;;;;;;;4.43;1.10;;;25.30;99.90;;;;;;5038234;28;20117;-27
2023/08/14 10:18:57;;;;;;;6.43;1.63;;;25.00;1.00;;;;;;5058056;28;20056;-29
2023/08/14 10:21:31;;;;;;;3.42;0.85;;;24.70;99.90;;;;;;5056195;28;20053;-29
2023/08/14 10:23:59;;;;;;;5.80;1.52;;;24.50;1.00;;;;;;5057133;28;20052;-30
2023/08/14 10:26:25;;;;;;;4.43;1.33;;;24.50;59.40;;;;;;5056977;28;20131;-29
2023/08/14 10:28:52;;;;;;;4.55;0.98;;;24.30;1.00;;;;;;5071642;28;20048;-29
2023/08/14 10:31:18;;;;;;;5.65;1.30;;;24.40;1.00;;;;;;5076031;28;20061;-29
2023/08/14 10:33:44;;;;;;;3.95;1.08;;;24.90;1.00;;;;;;5076888;28;20044;-29
2023/08/14 10:36:19;;;;;;;2.95;1.02;;;25.10;1.00;;;;;;5076691;28;20078;-29
2023/08/14 10:38:50;;;;;;;4.22;1.42;;;25.10;99.90;;;;;;5074949;28;20045;-29
2023/08/14 10:41:17;;;;;;;6.28;1.67;;;25.50;99.90;;;;;;5074284;28;20049;-29
2023/08/14 10:43:56;;;;;;;2.88;1.08;;;25.60;99.90;;;;;;5065210;28;20040;-30
2023/08/14 10:46:22;;;;;;;5.28;1.00;;;25.40;99.90;;;;;;5076579;28;20096;-30
2023/08/14 10:48:49;;;;;;;3.35;0.88;;;25.20;99.90;;;;;;5059907;28;20398;-29
2023/08/14 10:51:20;;;;;;;4.75;1.00;;;25.00;99.90;;;;;;5055694;28;20045;-30
2023/08/14 10:53:46;;;;;;;4.53;1.35;;;24.90;99.90;;;;;;5056879;28;20144;-30
2023/08/14 10:56:12;;;;;;;1.85;0.57;;;25.20;1.00;;;;;;5055967;28;20148;-27
2023/08/14 10:58:39;;;;;;;7.63;1.17;;;26.00;1.00;;;;;;5062400;28;20170;-30
2023/08/14 11:01:10;;;;;;;4.22;1.10;;;26.50;99.90;;;;;;5075130;28;20451;-29
2023/08/14 11:03:58;;;;;;;1.67;0.60;;;27.40;99.90;;;;;;5069817;28;20040;-29
2023/08/14 11:06:26;;;;;;;5.50;0.90;;;27.60;99.90;;;;;;5055071;28;20522;-30
2023/08/14 11:09:01;;;;;;;3.50;0.70;;;27.20;99.90;;;;;;5058184;28;20084;-31
2023/08/14 11:11:27;;;;;;;3.70;0.63;;;27.10;99.90;;;;;;5067605;28;20045;-30
2023/08/14 11:13:53;;;;;;;4.82;1.10;;;27.20;99.90;;;;;;5072249;28;20055;-29
2023/08/14 11:16:20;;;;;;;5.53;1.17;;;27.50;99.90;;;;;;5066221;28;20056;-30
2023/08/14 11:18:46;;;;;;;7.22;1.25;;;27.50;99.90;;;;;;5054895;28;20403;-30
2023/08/14 11:21:13;;;;;;;3.90;1.17;;;26.80;99.90;;;;;;5069181;28;20052;-30
2023/08/14 11:23:39;;;;;;;3.35;0.70;;;26.80;99.90;;;;;;5076031;28;20053;-30
2023/08/14 11:26:05;;;;;;;4.05;1.23;;;26.30;99.90;;;;;;5057588;28;20135;-29
2023/08/14 11:28:34;;;;;;;4.45;0.93;;;25.90;99.90;;;;;;5074244;28;20039;-27
2023/08/14 11:31:00;;;;;;;2.72;0.77;;;25.70;99.90;;;;;;5067947;28;20107;-27
2023/08/14 11:33:26;;;;;;;1.73;0.68;;;25.60;99.90;;;;;;5045639;28;20037;-28
2023/08/14 11:35:54;;;;;;;3.53;0.90;;;26.60;99.90;;;;;;5037934;28;20113;-30
2023/08/14 11:38:22;;;;;;;7.40;0.90;;;27.60;99.90;;;;;;5075175;28;20036;-28
2023/08/14 11:40:48;;;;;;;4.38;0.75;;;28.60;99.90;;;;;;5074509;28;20056;-28
2023/08/14 11:43:14;;;;;;;2.75;0.80;;;29.40;99.90;;;;;;5074503;28;20048;-28
2023/08/14 11:45:40;;;;;;;2.20;0.80;;;29.00;5.10;;;;;;5074572;28;20068;-28
2023/08/14 11:48:07;;;;;;;4.47;0.90;;;29.10;1.00;;;;;;5074638;28;20044;-28
2023/08/14 11:50:32;;;;;;;2.80;0.75;;;28.80;1.00;;;;;;5055534;28;20049;-28
2023/08/14 11:52:58;;;;;;;3.30;0.82;;;28.30;1.00;;;;;;5059440;28;20125;-28
2023/08/14 11:55:26;;;;;;;2.25;0.45;;;28.10;1.00;;;;;;5054883;28;20067;-28
2023/08/14 11:57:52;;;;;;;2.85;0.80;;;28.30;1.00;;;;;;5055134;28;20052;-28
2023/08/14 12:00:17;;;;;;;1.30;0.57;;;28.10;1.00;;;;;;5055401;28;20368;-28
2023/08/14 12:02:43;;;;;;;3.83;1.00;;;28.30;1.00;;;;;;5061726;28;20079;-28
2023/08/14 12:05:09;;;;;;;3.03;0.63;;;27.80;1.00;;;;;;5056390;28;20539;-28
2023/08/14 12:07:35;;;;;;;2.65;1.15;;;28.00;1.00;;;;;;5055650;28;20382;-29
2023/08/14 12:10:10;;;;;;;3.80;0.88;;;28.00;1.00;;;;;;5053936;28;20045;-28
2023/08/14 12:12:37;;;;;;;2.47;0.77;;;28.00;1.00;;;;;;5060692;28;20105;-29
2023/08/14 12:15:03;;;;;;;1.48;0.52;;;27.90;1.00;;;;;;5074838;28;20064;-29
2023/08/14 12:17:29;;;;;;;3.47;0.82;;;27.90;1.00;;;;;;5047768;28;20053;-28
2023/08/14 12:19:58;;;;;;;2.33;0.70;;;28.40;1.00;;;;;;5037121;28;20052;-28
2023/08/14 12:22:26;;;;;;;2.85;0.70;;;29.00;1.00;;;;;;5067322;28;20048;-29
2023/08/14 12:24:53;;;;;;;3.30;0.85;;;29.70;1.00;;;;;;5074775;28;20088;-29
2023/08/14 12:27:20;;;;;;;3.17;0.98;;;30.00;1.00;;;;;;5074340;28;20391;-28
2023/08/14 12:29:47;;;;;;;5.55;1.52;;;29.10;1.00;;;;;;5064087;28;20088;-29
2023/08/14 12:32:14;;;;;;;3.38;0.88;;;29.20;1.00;;;;;;5055307;28;20391;-28
2023/08/14 12:34:40;;;;;;;4.05;0.70;;;29.80;1.00;;;;;;5055943;28;20498;-29
2023/08/14 12:37:07;;;;;;;2.95;0.90;;;29.30;1.00;;;;;;5074220;28;20041;-29
2023/08/14 12:39:33;;;;;;;3.00;1.08;;;28.90;1.00;;;;;;5074937;28;20235;-29